Allison, Texas
Current Conditions -  °F | °C
As of 4:55 PM on Thursday 27 Nov 2014 (Local Time) from KHHF Reporting Station
Clear Clear  
Wind Chill: 13°   Ceiling: Unl
Heat Index: 13°   Visibility: 10mi
Dew Point: -3°   Wind: 14mph
Humidity: 33%   Direction: 200°SSW
Pressure: 30.24"   Gusts: NA
Location:  35.61°N, 100.1°W
Report Text: KHHF 272255Z AUTO 20012KT 10SM CLR 13/M03 A3024 RMK AO2 T01271031
Loading
Personal Weather Stations






























Interactive Weather Map New forecast layout! Learn more

10-Day Weather Forecast

Advertisements
Track Severe Weather on mobile